Terminal Aerodrome Forecast
Issued by NWS

Home | Current Version | Previous Version | Text Only | Print | Product List | Glossary On
Versions: 1 2 3 4 5 6 7 8 9 10 11 12 13
000
FTUS42 TJSJ 272300 RRA
TAFJBQ
TAF
TJBQ 272348Z 2800/2824 07010KT P6SM SCT025 SCT045
      TEMPO 2800/2802 BKN025 OVC045
     FM280400 10006KT P6SM SCT030
     FM281300 07014G20KT P6SM VCSH SCT025 BKN045
     FM282300 09010KT P6SM VCSH SCT025
      AMD NOT SKED 2802/2811=

USA.gov is the U.S. government's official web portal to all federal, state and local government web resources and services.